Terminal Aerodrome Forecast
Issued by NWS Blacksburg, VA

Current Version | Previous Version | Text Only | Print | Product List | Glossary Off
Versions: 1 2 3 4 5 6 7 8 9 10 11 12 13 14 15 16 17 18 19 20

000
FTUS41 KRNK 130900 AAA
TAFBLF
TAF AMD
KBLF 130900Z 1309/1406 20008KT P6SM SCT100
     FM131400 22009KT P6SM SCT040
     FM131700 22013G23KT P6SM SCT050
     FM140000 19012KT P6SM BKN250=

USA.gov is the U.S. government's official web portal to all federal, state and local government web resources and services.